Cape Express — HO5337 — position and weather

sailwx.info

Track history (hours):
 
Tides and Currents Weather Stations Pressure Air Temp Water Temp Dewpoint Dewpoint Depression Visibility Wind Speed Wind Dir Waves Ship Positions

Cape Express

Last reported at 2016-Sep-28 08:19 UTC. Time now 2016-Sep-30 04:59 UTC.
Position N 25°57' W 079°30'.

Length 29 m; draft 2.1 m.

Type: Cargo ship. MMSI: 370269000.

Date/timePositionNaut miles runAvg speedWind from/ knotsBaromVisibWave heightAir tempDewpointWater temp
2016-Sep-28 08:19N 25°57' W 079°30'35 7.3
2016-Sep-28 03:33N 26°04' W 080°08'0 0.1
2016-Sep-28 02:33N 26°04' W 080°08'0 0.0
2016-Sep-28 01:33N 26°04' W 080°08'0 0.0
2016-Sep-27 23:33N 26°04' W 080°08'0 0.0
2016-Sep-27 19:33N 26°04' W 080°08'0 0.0
2016-Sep-27 14:33N 26°04' W 080°08'0 0.0
2016-Sep-27 13:33N 26°04' W 080°08'17 5.6
2016-Sep-27 10:33N 26°01' W 079°49'24 0.6
2016-Sep-25 15:14N 26°05' W 079°23'7 9.6
2016-Sep-25 14:32N 26°04' W 079°30'17 8.4
2016-Sep-25 12:33N 26°05' W 079°49'9 8.8
2016-Sep-25 11:33N 26°06' W 079°58'8 7.7
2016-Sep-25 10:33N 26°04' W 080°07'1 1.1
2016-Sep-25 09:33N 26°04' W 080°08'0 0.0
2016-Sep-25 07:33N 26°04' W 080°08'0 0.0
2016-Sep-25 04:33N 26°04' W 080°08'0 0.0
2016-Sep-25 00:33N 26°04' W 080°08'6 3.0
2016-Sep-24 22:33N 26°05' W 080°01'1010.5
2016-Sep-24 21:33N 26°01' W 079°51'23 0.6
2016-Sep-23 04:13N 26°04' W 079°25'5 7.7
2016-Sep-23 03:31N 26°05' W 079°31'9 9.4
2016-Sep-23 02:33N 26°04' W 079°41'9 8.5
2016-Sep-23 01:33N 26°05' W 079°51'9 9.0
2016-Sep-23 00:33N 26°06' W 080°01'7 6.6
2016-Sep-22 23:33N 26°04' W 080°08'0 0.0
2016-Sep-22 20:33N 26°04' W 080°08'3 0.1
2016-Sep-20 17:33N 26°06' W 080°05'3 1.1
2016-Sep-20 14:33N 26°04' W 080°08'0 0.0
2016-Sep-20 13:33N 26°04' W 080°08'0 0.0
2016-Sep-20 10:33N 26°04' W 080°08'0 0.0
2016-Sep-20 08:33N 26°04' W 080°08'0 0.0
2016-Sep-20 07:33N 26°04' W 080°08'0 0.0
2016-Sep-20 06:33N 26°04' W 080°08'0 0.0
2016-Sep-20 02:33N 26°04' W 080°08'0 0.0
2016-Sep-19 23:33N 26°04' W 080°08'0 0.0
2016-Sep-19 19:33N 26°04' W 080°08'0 0.0
2016-Sep-19 13:33N 26°04' W 080°08'0 0.0
2016-Sep-19 12:33N 26°04' W 080°08'0 0.0
2016-Sep-19 11:33N 26°04' W 080°08'0 0.0
2016-Sep-19 09:33N 26°04' W 080°08'0 0.0
2016-Sep-19 07:33N 26°04' W 080°08'0 0.0
2016-Sep-19 06:34N 26°04' W 080°08'0 0.0
2016-Sep-19 03:33N 26°04' W 080°08'0 0.0
2016-Sep-19 02:34N 26°04' W 080°08'0 0.0
2016-Sep-19 00:33N 26°04' W 080°08'0 0.0
2016-Sep-18 19:33N 26°04' W 080°08'0 0.0
2016-Sep-18 15:33N 26°04' W 080°08'0 0.0
2016-Sep-18 14:33N 26°04' W 080°08'28 6.9
2016-Sep-18 10:33N 25°58' W 079°38'  
Track history (hours):
 
Tides and Currents Weather Stations Pressure Air Temp Water Temp Dewpoint Dewpoint Depression Visibility Wind Speed Wind Dir Waves Ship Positions

Cape Express

Last reported at 2016-Sep-28 08:19 UTC. Time now 2016-Sep-30 04:59 UTC.
Position N 25°57' W 079°30'.

Length 29 m; draft 2.1 m.

Type: Cargo ship. MMSI: 370269000.

Date/timePositionNaut miles runAvg speedWind from/ knotsBaromVisibWave heightAir tempDewpointWater temp
2016-Sep-28 08:19N 25°57' W 079°30'35 7.3
2016-Sep-28 03:33N 26°04' W 080°08'0 0.1
2016-Sep-28 02:33N 26°04' W 080°08'0 0.0
2016-Sep-28 01:33N 26°04' W 080°08'0 0.0
2016-Sep-27 23:33N 26°04' W 080°08'0 0.0
2016-Sep-27 19:33N 26°04' W 080°08'0 0.0
2016-Sep-27 14:33N 26°04' W 080°08'0 0.0
2016-Sep-27 13:33N 26°04' W 080°08'17 5.6
2016-Sep-27 10:33N 26°01' W 079°49'24 0.6
2016-Sep-25 15:14N 26°05' W 079°23'7 9.6
2016-Sep-25 14:32N 26°04' W 079°30'17 8.4
2016-Sep-25 12:33N 26°05' W 079°49'9 8.8
2016-Sep-25 11:33N 26°06' W 079°58'8 7.7
2016-Sep-25 10:33N 26°04' W 080°07'1 1.1
2016-Sep-25 09:33N 26°04' W 080°08'0 0.0
2016-Sep-25 07:33N 26°04' W 080°08'0 0.0
2016-Sep-25 04:33N 26°04' W 080°08'0 0.0
2016-Sep-25 00:33N 26°04' W 080°08'6 3.0
2016-Sep-24 22:33N 26°05' W 080°01'1010.5
2016-Sep-24 21:33N 26°01' W 079°51'23 0.6
2016-Sep-23 04:13N 26°04' W 079°25'5 7.7
2016-Sep-23 03:31N 26°05' W 079°31'9 9.4
2016-Sep-23 02:33N 26°04' W 079°41'9 8.5
2016-Sep-23 01:33N 26°05' W 079°51'9 9.0
2016-Sep-23 00:33N 26°06' W 080°01'7 6.6
2016-Sep-22 23:33N 26°04' W 080°08'0 0.0
2016-Sep-22 20:33N 26°04' W 080°08'3 0.1
2016-Sep-20 17:33N 26°06' W 080°05'3 1.1
2016-Sep-20 14:33N 26°04' W 080°08'0 0.0
2016-Sep-20 13:33N 26°04' W 080°08'0 0.0
2016-Sep-20 10:33N 26°04' W 080°08'0 0.0
2016-Sep-20 08:33N 26°04' W 080°08'0 0.0
2016-Sep-20 07:33N 26°04' W 080°08'0 0.0
2016-Sep-20 06:33N 26°04' W 080°08'0 0.0
2016-Sep-20 02:33N 26°04' W 080°08'0 0.0
2016-Sep-19 23:33N 26°04' W 080°08'0 0.0
2016-Sep-19 19:33N 26°04' W 080°08'0 0.0
2016-Sep-19 13:33N 26°04' W 080°08'0 0.0
2016-Sep-19 12:33N 26°04' W 080°08'0 0.0
2016-Sep-19 11:33N 26°04' W 080°08'0 0.0
2016-Sep-19 09:33N 26°04' W 080°08'0 0.0
2016-Sep-19 07:33N 26°04' W 080°08'0 0.0
2016-Sep-19 06:34N 26°04' W 080°08'0 0.0
2016-Sep-19 03:33N 26°04' W 080°08'0 0.0
2016-Sep-19 02:34N 26°04' W 080°08'0 0.0
2016-Sep-19 00:33N 26°04' W 080°08'0 0.0
2016-Sep-18 19:33N 26°04' W 080°08'0 0.0
2016-Sep-18 15:33N 26°04' W 080°08'0 0.0
2016-Sep-18 14:33N 26°04' W 080°08'28 6.9
2016-Sep-18 10:33N 25°58' W 079°38'  

Dump ship's entire track history